createdAt,value
2023-05-21T00:02:20.065Z,15.63
2023-05-21T00:04:46.883Z,15.59
2023-05-21T00:07:13.474Z,15.49
2023-05-21T00:09:40.035Z,15.58
2023-05-21T00:12:10.117Z,15.64
2023-05-21T00:14:36.696Z,15.58
2023-05-21T00:17:03.259Z,15.45
2023-05-21T00:19:29.930Z,15.35
2023-05-21T00:21:57.658Z,15.29
2023-05-21T00:24:24.266Z,15.19
2023-05-21T00:26:50.976Z,15.10
2023-05-21T00:29:17.811Z,15.14
2023-05-21T00:31:44.436Z,15.22
2023-05-21T00:34:10.985Z,15.16
2023-05-21T00:36:38.050Z,15.03
2023-05-21T00:39:05.744Z,15.16
2023-05-21T00:41:32.263Z,15.06
2023-05-21T00:44:00.358Z,15.23
2023-05-21T00:46:28.536Z,15.36
2023-05-21T00:48:55.122Z,15.23
2023-05-21T00:51:21.978Z,15.16
2023-05-21T00:53:51.367Z,15.18
2023-05-21T00:56:19.383Z,15.31
2023-05-21T00:58:46.031Z,15.28
2023-05-21T01:01:13.982Z,15.27
2023-05-21T01:03:41.039Z,15.28
2023-05-21T01:06:08.952Z,15.34
2023-05-21T01:08:36.241Z,15.28
2023-05-21T01:11:02.936Z,15.16
2023-05-21T01:13:29.641Z,15.16
2023-05-21T01:15:58.020Z,15.11
2023-05-21T01:18:24.545Z,15.06
2023-05-21T01:20:52.545Z,15.24
2023-05-21T01:23:19.435Z,15.20
2023-05-21T01:25:46.348Z,15.16
2023-05-21T01:28:13.383Z,15.22
2023-05-21T01:30:40.400Z,15.28
2023-05-21T01:33:32.578Z,15.28
2023-05-21T01:36:16.071Z,15.31
2023-05-21T01:38:44.834Z,15.23
2023-05-21T01:41:11.559Z,15.27
2023-05-21T01:43:39.409Z,15.32
2023-05-21T01:46:06.311Z,15.23
2023-05-21T01:48:32.845Z,15.22
2023-05-21T01:51:00.961Z,15.34
2023-05-21T01:53:27.534Z,15.24
2023-05-21T01:55:54.577Z,15.10
2023-05-21T01:58:22.719Z,15.06
2023-05-21T02:00:51.103Z,15.02
2023-05-21T02:03:18.800Z,15.05
2023-05-21T02:05:45.821Z,15.23
2023-05-21T02:08:12.912Z,15.15
2023-05-21T02:10:39.423Z,14.99
2023-05-21T02:13:05.938Z,14.84
2023-05-21T02:15:34.883Z,14.72
2023-05-21T02:18:01.774Z,14.71
2023-05-21T02:20:28.400Z,14.86
2023-05-21T02:22:55.023Z,14.91
2023-05-21T02:25:21.551Z,14.70
2023-05-21T02:27:48.151Z,14.70
2023-05-21T02:30:15.543Z,14.67
2023-05-21T02:32:43.035Z,14.56
2023-05-21T02:35:11.246Z,14.32
2023-05-21T02:37:37.879Z,14.46
2023-05-21T02:40:05.934Z,14.37
2023-05-21T02:42:32.464Z,14.40
2023-05-21T02:44:59.040Z,14.27
2023-05-21T02:47:25.865Z,14.18
2023-05-21T02:49:53.017Z,14.19
2023-05-21T02:52:19.933Z,13.80
2023-05-21T02:54:46.974Z,13.70
2023-05-21T02:57:13.570Z,14.08
2023-05-21T02:59:40.148Z,14.28
2023-05-21T03:02:06.872Z,14.28
2023-05-21T03:04:39.228Z,14.21
2023-05-21T03:07:06.158Z,14.28
2023-05-21T03:09:32.674Z,14.45
2023-05-21T03:11:59.233Z,14.19
2023-05-21T03:14:25.837Z,14.13
2023-05-21T03:16:52.470Z,14.19
2023-05-21T03:19:19.148Z,14.34
2023-05-21T03:21:45.774Z,14.23
2023-05-21T03:24:13.712Z,14.42
2023-05-21T03:26:40.274Z,14.26
2023-05-21T03:29:06.890Z,14.30
2023-05-21T03:31:33.477Z,14.15
2023-05-21T03:34:00.036Z,14.01
2023-05-21T03:36:26.611Z,13.78
2023-05-21T03:38:53.120Z,13.88
2023-05-21T03:41:19.675Z,13.82
2023-05-21T03:43:46.225Z,13.86
2023-05-21T03:46:12.734Z,13.92
2023-05-21T03:48:39.306Z,13.75
2023-05-21T03:51:05.928Z,13.77
2023-05-21T03:53:33.653Z,14.10
2023-05-21T03:56:00.160Z,14.13
2023-05-21T03:58:26.878Z,14.28
2023-05-21T04:00:53.492Z,14.29
2023-05-21T04:03:20.163Z,14.38
2023-05-21T04:05:46.763Z,14.39
2023-05-21T04:08:13.549Z,14.42
2023-05-21T04:10:40.110Z,14.42
2023-05-21T04:13:06.799Z,14.53
2023-05-21T04:15:34.731Z,14.45
2023-05-21T04:18:01.611Z,14.46
2023-05-21T04:20:28.265Z,14.52
2023-05-21T04:22:54.816Z,14.65
2023-05-21T04:25:22.996Z,14.61
2023-05-21T04:27:50.219Z,14.62
2023-05-21T04:30:16.770Z,14.75
2023-05-21T04:32:45.885Z,14.69
2023-05-21T04:35:15.145Z,14.73
2023-05-21T04:37:42.168Z,14.86
2023-05-21T04:40:09.677Z,14.79
2023-05-21T04:42:36.332Z,14.85
2023-05-21T04:45:02.902Z,14.95
2023-05-21T04:47:35.492Z,14.94
2023-05-21T04:50:02.566Z,15.06
2023-05-21T04:52:29.088Z,14.98
2023-05-21T04:54:55.684Z,15.14
2023-05-21T04:57:24.557Z,15.19
2023-05-21T04:59:51.113Z,15.27
2023-05-21T05:02:17.617Z,15.29
2023-05-21T05:04:44.179Z,15.41
2023-05-21T05:07:10.749Z,15.29
2023-05-21T05:09:37.309Z,15.50
2023-05-21T05:12:04.169Z,15.43
2023-05-21T05:14:31.047Z,15.48
2023-05-21T05:17:00.620Z,15.50
2023-05-21T05:19:27.422Z,15.62
2023-05-21T05:21:54.214Z,15.75
2023-05-21T05:24:20.882Z,15.89
2023-05-21T05:26:47.552Z,15.96
2023-05-21T05:29:14.082Z,15.92
2023-05-21T05:31:40.641Z,15.93
2023-05-21T05:34:07.262Z,16.14
2023-05-21T05:36:33.788Z,16.03
2023-05-21T05:39:00.336Z,16.02
2023-05-21T05:41:27.221Z,16.29
2023-05-21T05:43:53.742Z,16.29
2023-05-21T05:46:20.410Z,16.49
2023-05-21T05:48:47.001Z,16.54
2023-05-21T05:51:15.289Z,16.61
2023-05-21T05:53:41.818Z,16.85
2023-05-21T05:56:08.412Z,16.91
2023-05-21T05:58:34.943Z,16.93
2023-05-21T06:01:02.185Z,17.02
2023-05-21T06:03:29.783Z,17.07
2023-05-21T06:05:56.433Z,16.98
2023-05-21T06:08:23.352Z,17.14
2023-05-21T06:10:50.022Z,17.13
2023-05-21T06:13:16.532Z,17.11
2023-05-21T06:15:43.398Z,17.12
2023-05-21T06:18:10.156Z,17.11
2023-05-21T06:20:37.128Z,17.30
2023-05-21T06:23:03.693Z,17.22
2023-05-21T06:25:30.256Z,17.19
2023-05-21T06:27:56.905Z,17.36
2023-05-21T06:30:23.395Z,17.33
2023-05-21T06:32:50.093Z,17.40
2023-05-21T06:35:16.770Z,17.56
2023-05-21T06:37:43.305Z,17.48
2023-05-21T06:40:10.140Z,17.49
2023-05-21T06:42:36.718Z,17.52
2023-05-21T06:45:03.415Z,17.51
2023-05-21T06:47:30.013Z,17.72
2023-05-21T06:49:56.641Z,17.61
2023-05-21T06:52:23.203Z,17.73
2023-05-21T06:54:49.738Z,17.74
2023-05-21T06:57:16.313Z,17.75
2023-05-21T06:59:42.883Z,17.82
2023-05-21T07:02:09.489Z,17.89
2023-05-21T07:04:36.399Z,17.98
2023-05-21T07:07:05.054Z,17.73
2023-05-21T07:09:31.800Z,17.94
2023-05-21T07:11:58.337Z,17.77
2023-05-21T07:14:27.687Z,18.19
2023-05-21T07:16:54.269Z,17.97
2023-05-21T07:19:21.199Z,18.31
2023-05-21T07:21:47.800Z,18.49
2023-05-21T07:24:14.319Z,18.77
2023-05-21T07:26:41.116Z,18.95
2023-05-21T07:29:07.655Z,19.24
2023-05-21T07:31:34.391Z,19.42
2023-05-21T07:34:01.058Z,19.67
2023-05-21T07:36:27.669Z,19.67
2023-05-21T07:38:54.820Z,19.65
2023-05-21T07:41:22.045Z,19.68
2023-05-21T07:43:48.714Z,20.06
2023-05-21T07:46:15.254Z,20.16
2023-05-21T07:48:41.845Z,20.44
2023-05-21T07:51:08.372Z,20.50
2023-05-21T07:53:35.020Z,20.69
2023-05-21T07:56:01.530Z,20.79
2023-05-21T07:58:28.023Z,20.85
2023-05-21T08:00:54.684Z,21.02
2023-05-21T08:03:21.340Z,20.69
2023-05-21T08:05:50.931Z,20.80
2023-05-21T08:08:22.016Z,20.63
2023-05-21T08:10:48.629Z,20.82
2023-05-21T08:13:15.818Z,20.55
2023-05-21T08:15:42.380Z,21.03
2023-05-21T08:18:09.131Z,21.02
2023-05-21T08:20:35.657Z,20.70
2023-05-21T08:23:02.210Z,20.55
2023-05-21T08:25:28.842Z,21.01
2023-05-21T08:27:55.558Z,20.79
2023-05-21T08:30:22.212Z,20.54
2023-05-21T08:32:48.999Z,20.69
2023-05-21T08:35:15.579Z,20.52
2023-05-21T08:37:42.203Z,20.46
2023-05-21T08:40:09.295Z,20.22
2023-05-21T08:42:46.691Z,20.08
2023-05-21T08:45:14.073Z,20.13
2023-05-21T08:47:44.166Z,20.13
2023-05-21T08:50:12.086Z,20.11
2023-05-21T08:52:38.637Z,20.07
2023-05-21T08:55:05.997Z,20.24
2023-05-21T08:57:32.668Z,20.40
2023-05-21T08:59:59.686Z,20.18
2023-05-21T09:02:26.282Z,20.28
2023-05-21T09:04:57.191Z,20.34
2023-05-21T09:07:30.484Z,20.42
2023-05-21T09:09:58.307Z,20.60
2023-05-21T09:12:25.548Z,20.51
2023-05-21T09:14:52.140Z,20.62
2023-05-21T09:17:20.271Z,20.74
2023-05-21T09:20:16.036Z,21.04
2023-05-21T09:22:46.412Z,21.02
2023-05-21T09:25:17.119Z,21.32
2023-05-21T09:27:43.722Z,21.46
2023-05-21T09:30:11.836Z,21.57
2023-05-21T09:32:41.428Z,21.82
2023-05-21T09:35:14.181Z,21.89
2023-05-21T09:37:45.095Z,21.98
2023-05-21T09:40:13.199Z,22.06
2023-05-21T09:42:40.597Z,22.38
2023-05-21T09:45:10.439Z,22.26
2023-05-21T09:47:46.168Z,22.12
2023-05-21T09:50:33.296Z,22.31
2023-05-21T09:52:59.837Z,22.25
2023-05-21T09:55:26.585Z,22.58
2023-05-21T09:57:53.241Z,22.30
2023-05-21T10:00:21.542Z,22.44
2023-05-21T10:02:49.249Z,22.52
2023-05-21T10:05:16.551Z,22.43
2023-05-21T10:07:45.597Z,22.39
2023-05-21T10:10:14.045Z,22.57
2023-05-21T10:12:47.348Z,22.51
2023-05-21T10:15:16.250Z,22.47
2023-05-21T10:17:43.520Z,22.85
2023-05-21T10:20:13.093Z,22.94
2023-05-21T10:22:40.416Z,22.83
2023-05-21T10:25:08.100Z,22.86
2023-05-21T10:27:37.681Z,22.88
2023-05-21T10:30:05.725Z,22.91
2023-05-21T10:32:32.670Z,22.92
2023-05-21T10:35:01.457Z,22.94
2023-05-21T10:37:28.561Z,23.06
2023-05-21T10:39:55.741Z,22.86
2023-05-21T10:42:31.344Z,23.12
2023-05-21T10:45:08.786Z,23.34
2023-05-21T10:48:19.639Z,23.44
2023-05-21T10:51:01.668Z,23.53
2023-05-21T10:53:55.715Z,23.93
2023-05-21T10:56:32.874Z,24.04
2023-05-21T10:59:12.456Z,24.15
2023-05-21T11:01:40.019Z,24.24
2023-05-21T11:04:06.678Z,24.17
2023-05-21T11:06:33.267Z,24.29
2023-05-21T11:09:15.396Z,24.31
2023-05-21T11:11:42.884Z,24.19
2023-05-21T11:14:38.852Z,23.95
2023-05-21T11:17:08.121Z,24.29
2023-05-21T11:19:39.022Z,23.90
2023-05-21T11:22:22.010Z,23.83
2023-05-21T11:24:50.880Z,24.20
2023-05-21T11:27:44.129Z,24.58
2023-05-21T11:30:15.546Z,24.65
2023-05-21T11:33:07.352Z,24.41
2023-05-21T11:35:46.152Z,24.36
2023-05-21T11:38:12.714Z,24.37
2023-05-21T11:40:46.566Z,24.36
2023-05-21T11:43:13.091Z,24.59
2023-05-21T11:45:39.603Z,24.64
2023-05-21T11:48:06.773Z,24.32
2023-05-21T11:50:34.166Z,23.97
2023-05-21T11:53:00.863Z,23.78
2023-05-21T11:55:27.473Z,23.84
2023-05-21T11:57:54.565Z,23.87
2023-05-21T12:00:21.673Z,23.87
2023-05-21T12:02:52.998Z,23.90
2023-05-21T12:05:20.394Z,24.00
2023-05-21T12:07:48.925Z,24.19
2023-05-21T12:10:15.638Z,24.02
2023-05-21T12:12:53.777Z,24.22
2023-05-21T12:15:22.742Z,24.13
2023-05-21T12:17:50.142Z,24.56
2023-05-21T12:20:17.122Z,24.37
2023-05-21T12:22:44.707Z,25.02
2023-05-21T12:25:12.135Z,25.24
2023-05-21T12:27:38.710Z,24.86
2023-05-21T12:30:05.869Z,25.12
2023-05-21T12:32:32.510Z,25.23
2023-05-21T12:34:59.099Z,25.12
2023-05-21T12:37:26.892Z,25.53
2023-05-21T12:39:54.508Z,25.71
2023-05-21T12:42:28.197Z,25.33
2023-05-21T12:44:54.811Z,25.33
2023-05-21T12:47:26.581Z,25.74
2023-05-21T12:50:03.813Z,25.68
2023-05-21T12:52:33.242Z,25.33
2023-05-21T12:54:59.875Z,25.53
2023-05-21T12:57:37.104Z,25.82
2023-05-21T13:00:06.484Z,25.73
2023-05-21T13:02:35.183Z,25.73
2023-05-21T13:05:05.585Z,26.30
2023-05-21T13:07:33.008Z,26.36
2023-05-21T13:09:59.794Z,26.72
2023-05-21T13:12:27.605Z,26.90
2023-05-21T13:14:55.601Z,27.12
2023-05-21T13:17:22.322Z,27.45
2023-05-21T13:20:14.245Z,27.47
2023-05-21T13:22:42.497Z,27.18
2023-05-21T13:25:15.791Z,26.27
2023-05-21T13:27:42.760Z,25.93
2023-05-21T13:30:11.326Z,25.98
2023-05-21T13:32:38.474Z,25.23
2023-05-21T13:35:05.496Z,25.10
2023-05-21T13:37:32.246Z,25.30
2023-05-21T13:39:58.890Z,25.07
2023-05-21T13:42:25.483Z,25.39
2023-05-21T13:44:52.028Z,25.65
2023-05-21T13:47:18.706Z,25.31
2023-05-21T13:49:45.387Z,25.72
2023-05-21T13:52:11.907Z,25.66
2023-05-21T13:54:38.514Z,25.52
2023-05-21T13:57:05.101Z,25.45
2023-05-21T13:59:33.701Z,25.20
2023-05-21T14:02:00.876Z,25.14
2023-05-21T14:04:27.430Z,25.74
2023-05-21T14:06:54.034Z,26.26
2023-05-21T14:09:21.363Z,26.53
2023-05-21T14:11:47.903Z,26.59
2023-05-21T14:14:18.789Z,27.01
2023-05-21T14:16:47.178Z,26.90
2023-05-21T14:19:13.965Z,27.50
2023-05-21T14:21:40.944Z,27.55
2023-05-21T14:24:07.732Z,27.26
2023-05-21T14:26:36.652Z,27.55
2023-05-21T14:29:03.203Z,28.39
2023-05-21T14:31:29.910Z,28.15
2023-05-21T14:33:56.457Z,28.02
2023-05-21T14:36:22.970Z,28.47
2023-05-21T14:38:49.516Z,27.79
2023-05-21T14:41:16.042Z,28.72
2023-05-21T14:43:42.580Z,29.02
2023-05-21T14:46:09.143Z,28.41
2023-05-21T14:48:35.849Z,27.97
2023-05-21T14:51:02.357Z,28.45
2023-05-21T14:53:28.987Z,27.84
2023-05-21T14:55:55.604Z,28.24
2023-05-21T14:58:22.142Z,28.54
2023-05-21T15:00:48.883Z,27.79
2023-05-21T15:03:16.290Z,27.34
2023-05-21T15:05:42.847Z,27.56
2023-05-21T15:08:09.739Z,27.69
2023-05-21T15:10:36.261Z,28.08
2023-05-21T15:13:02.828Z,28.32
2023-05-21T15:15:29.387Z,28.29
2023-05-21T15:17:57.661Z,28.63
2023-05-21T15:20:24.358Z,27.72
2023-05-21T15:22:52.348Z,28.20
2023-05-21T15:25:21.678Z,27.76
2023-05-21T15:27:50.386Z,26.06
2023-05-21T15:30:17.269Z,26.34
2023-05-21T15:32:43.882Z,26.64
2023-05-21T15:35:10.590Z,27.63
2023-05-21T15:37:37.224Z,28.15
2023-05-21T15:40:04.103Z,26.45
2023-05-21T15:42:31.813Z,27.35
2023-05-21T15:44:58.643Z,27.87
2023-05-21T15:47:25.178Z,26.61
2023-05-21T15:49:51.882Z,26.77
2023-05-21T15:52:19.821Z,27.26
2023-05-21T15:54:46.962Z,27.34
2023-05-21T15:57:13.509Z,27.62
2023-05-21T15:59:40.182Z,27.61
2023-05-21T16:02:07.270Z,26.69
2023-05-21T16:04:33.916Z,25.91
2023-05-21T16:07:00.535Z,26.04
2023-05-21T16:09:27.079Z,26.11
2023-05-21T16:11:53.600Z,25.95
2023-05-21T16:14:20.360Z,25.52
2023-05-21T16:16:46.931Z,25.56
2023-05-21T16:19:13.488Z,25.31
2023-05-21T16:21:40.120Z,25.54
2023-05-21T16:24:06.770Z,25.49
2023-05-21T16:26:33.262Z,25.39
2023-05-21T16:29:02.289Z,25.37
2023-05-21T16:31:28.991Z,25.71
2023-05-21T16:33:55.850Z,25.91
2023-05-21T16:36:22.618Z,26.07
2023-05-21T16:38:49.322Z,26.23
2023-05-21T16:41:16.262Z,25.64
2023-05-21T16:43:42.840Z,26.18
2023-05-21T16:46:09.397Z,25.83
2023-05-21T16:48:38.039Z,25.65
2023-05-21T16:51:05.001Z,25.95
2023-05-21T16:53:31.779Z,25.12
2023-05-21T16:55:58.970Z,25.55
2023-05-21T16:58:25.628Z,25.70
2023-05-21T17:00:52.163Z,25.72
2023-05-21T17:03:19.000Z,25.09
2023-05-21T17:05:45.667Z,25.00
2023-05-21T17:08:12.467Z,25.24
2023-05-21T17:10:40.210Z,24.65
2023-05-21T17:13:20.943Z,24.73
2023-05-21T17:15:48.848Z,24.30
2023-05-21T17:18:15.735Z,24.54
2023-05-21T17:20:43.672Z,24.28
2023-05-21T17:23:11.476Z,24.68
2023-05-21T17:25:38.236Z,24.02
2023-05-21T17:28:05.166Z,23.79
2023-05-21T17:30:31.779Z,23.72
2023-05-21T17:32:58.440Z,23.47
2023-05-21T17:35:25.089Z,23.53
2023-05-21T17:37:53.248Z,23.63
2023-05-21T17:40:21.469Z,23.74
2023-05-21T17:42:48.538Z,23.53
2023-05-21T17:45:15.092Z,23.60
2023-05-21T17:47:41.700Z,23.14
2023-05-21T17:50:08.767Z,22.77
2023-05-21T17:52:35.359Z,22.74
2023-05-21T17:55:02.005Z,22.88
2023-05-21T17:57:28.629Z,22.53
2023-05-21T17:59:55.606Z,22.43
2023-05-21T18:02:23.638Z,21.94
2023-05-21T18:04:50.349Z,21.51
2023-05-21T18:07:17.384Z,21.07
2023-05-21T18:09:43.954Z,21.25
2023-05-21T18:12:10.986Z,20.75
2023-05-21T18:14:37.552Z,20.81
2023-05-21T18:17:04.305Z,20.60
2023-05-21T18:19:31.458Z,20.35
2023-05-21T18:21:58.108Z,20.28
2023-05-21T18:24:24.950Z,20.03
2023-05-21T18:26:51.568Z,19.74
2023-05-21T18:29:18.152Z,19.68
2023-05-21T18:31:45.577Z,19.30
2023-05-21T18:34:12.299Z,19.04
2023-05-21T18:36:39.070Z,19.06
2023-05-21T18:39:07.033Z,18.83
2023-05-21T18:41:33.699Z,18.79
2023-05-21T18:44:01.728Z,18.74
2023-05-21T18:46:28.833Z,18.12
2023-05-21T18:48:55.988Z,17.65
2023-05-21T18:51:22.606Z,17.41
2023-05-21T18:53:49.204Z,17.54
2023-05-21T18:56:15.830Z,17.34
2023-05-21T18:58:42.353Z,17.20
2023-05-21T19:01:08.928Z,17.48
2023-05-21T19:03:35.428Z,17.28
2023-05-21T19:06:02.061Z,17.09
2023-05-21T19:08:28.793Z,17.21
2023-05-21T19:10:55.344Z,16.90
2023-05-21T19:13:22.468Z,16.74
2023-05-21T19:15:49.124Z,16.49
2023-05-21T19:18:17.150Z,16.65
2023-05-21T19:20:43.784Z,16.43
2023-05-21T19:23:10.587Z,16.16
2023-05-21T19:25:37.508Z,16.07
2023-05-21T19:28:04.076Z,15.94
2023-05-21T19:30:30.759Z,15.89
2023-05-21T19:32:57.469Z,15.90
2023-05-21T19:35:24.152Z,15.37
2023-05-21T19:37:50.893Z,15.64
2023-05-21T19:40:17.783Z,15.92
2023-05-21T19:42:44.743Z,15.80
2023-05-21T19:45:11.852Z,15.67
2023-05-21T19:47:40.992Z,15.60
2023-05-21T19:50:08.215Z,15.70
2023-05-21T19:52:35.316Z,15.57
2023-05-21T19:55:05.652Z,15.48
2023-05-21T19:57:32.524Z,15.38
2023-05-21T19:59:59.182Z,15.27
2023-05-21T20:02:25.865Z,15.44
2023-05-21T20:04:53.426Z,15.22
2023-05-21T20:07:19.998Z,15.08
2023-05-21T20:09:46.603Z,15.34
2023-05-21T20:12:13.136Z,15.03
2023-05-21T20:14:39.713Z,15.11
2023-05-21T20:17:07.037Z,14.74
2023-05-21T20:19:34.341Z,14.70
2023-05-21T20:22:00.984Z,15.00
2023-05-21T20:24:27.525Z,14.76
2023-05-21T20:26:54.881Z,14.75
2023-05-21T20:29:21.442Z,14.72
2023-05-21T20:31:47.986Z,14.70
2023-05-21T20:34:17.508Z,14.60
2023-05-21T20:36:44.076Z,14.72
2023-05-21T20:39:12.031Z,14.80
2023-05-21T20:41:38.777Z,14.64
2023-05-21T20:44:05.733Z,14.50
2023-05-21T20:46:32.766Z,14.56
2023-05-21T20:48:59.955Z,14.54
2023-05-21T20:51:27.292Z,14.41
2023-05-21T20:53:53.872Z,14.31
2023-05-21T20:56:29.865Z,14.34
2023-05-21T20:59:08.584Z,14.26
2023-05-21T21:01:37.864Z,14.45
2023-05-21T21:04:05.001Z,14.20
2023-05-21T21:06:31.899Z,14.03
2023-05-21T21:08:58.617Z,13.85
2023-05-21T21:11:25.234Z,14.01
2023-05-21T21:13:52.009Z,13.70
2023-05-21T21:16:18.661Z,13.62
2023-05-21T21:18:47.037Z,13.87
2023-05-21T21:21:13.802Z,13.61
2023-05-21T21:23:40.460Z,13.66
2023-05-21T21:26:07.176Z,13.48
2023-05-21T21:28:33.967Z,13.49
2023-05-21T21:31:00.586Z,12.99
2023-05-21T21:33:28.336Z,13.10
2023-05-21T21:35:55.046Z,13.12
2023-05-21T21:38:21.637Z,12.98
2023-05-21T21:40:48.201Z,13.17
2023-05-21T21:43:14.836Z,12.90
2023-05-21T21:45:41.454Z,12.99
2023-05-21T21:48:08.062Z,12.88
2023-05-21T21:50:34.678Z,12.83
2023-05-21T21:53:03.469Z,13.23
2023-05-21T21:55:30.049Z,13.09
2023-05-21T21:57:56.700Z,12.79
2023-05-21T22:00:26.552Z,12.93
2023-05-21T22:02:53.793Z,12.93
2023-05-21T22:05:20.410Z,12.91
2023-05-21T22:07:47.134Z,12.84
2023-05-21T22:10:15.158Z,12.61
2023-05-21T22:12:42.030Z,13.06
2023-05-21T22:15:10.981Z,13.13
2023-05-21T22:17:38.289Z,12.72
2023-05-21T22:20:05.947Z,12.83
2023-05-21T22:22:32.503Z,12.56
2023-05-21T22:24:59.005Z,12.68
2023-05-21T22:27:25.642Z,12.27
2023-05-21T22:29:52.176Z,12.30
2023-05-21T22:32:18.749Z,12.43
2023-05-21T22:34:45.631Z,12.48
2023-05-21T22:37:12.498Z,12.36
2023-05-21T22:39:39.170Z,12.30
2023-05-21T22:42:06.085Z,11.97
2023-05-21T22:44:32.647Z,12.16
2023-05-21T22:47:00.905Z,12.15
2023-05-21T22:49:28.078Z,12.06
2023-05-21T22:51:54.578Z,12.11
2023-05-21T22:54:21.627Z,12.09
2023-05-21T22:56:49.336Z,12.07
2023-05-21T22:59:15.903Z,12.25
2023-05-21T23:01:42.479Z,12.00
2023-05-21T23:04:09.077Z,12.13
2023-05-21T23:06:35.601Z,11.98
2023-05-21T23:09:02.119Z,11.90
2023-05-21T23:11:28.638Z,11.98
2023-05-21T23:13:55.136Z,11.86
2023-05-21T23:16:22.630Z,11.81
2023-05-21T23:18:50.001Z,11.81
2023-05-21T23:21:17.075Z,11.82
2023-05-21T23:23:43.671Z,11.61
2023-05-21T23:26:10.229Z,11.77
2023-05-21T23:28:37.178Z,11.95
2023-05-21T23:31:03.753Z,11.89
2023-05-21T23:33:30.510Z,12.08
2023-05-21T23:35:57.059Z,12.25
2023-05-21T23:38:24.179Z,12.11
2023-05-21T23:40:51.071Z,12.04
2023-05-21T23:43:17.662Z,12.05
2023-05-21T23:45:44.527Z,12.15
2023-05-21T23:48:11.950Z,12.17
2023-05-21T23:50:38.619Z,12.34
2023-05-21T23:53:05.338Z,12.21
2023-05-21T23:55:32.086Z,12.26
2023-05-21T23:57:58.600Z,12.15
